BAH4PV LIMJ-EGSS
Flight info
| Callsign | BAH4PV |
|---|---|
| Flight time | 1h 40m |
| Altitude | 38000 |
| Route | LAGEN DCT NEDED DCT TOP DCT AOSTA DCT ORSUD DCT MOLUS DCT IBODI DCT GOTED DCT TRO DCT CLM DCT KOPOR DCT SOSUN DCT SUBIP UM733 BANVA |
| Aircraft | B764/H-SDE3FGHIM3RWXY/LB1 |
Departure
| Time | 2026-04-26 19:03 |
|---|---|
| Airport | Genoa Cristoforo Colombo Airport (LIMJ) |
Arrival
| Time | 2026-04-26 20:44 |
|---|---|
| Airport | London Stansted Airport (EGSS) |
| Time | Latitude | Longitude | Altitude | Speed | Heading |
|---|---|---|---|---|---|
| 2026-04-26 18:39 | 44.41319 | 8.84763 | 25 ft | 0 kts | 195° |
| 2026-04-26 18:55 | 44.41324 | 8.84764 | 26 ft | 2 kts | 193° |
| 2026-04-26 18:55 | 44.41339 | 8.84767 | 26 ft | 2 kts | 176° |
| 2026-04-26 18:55 | 44.41353 | 8.84763 | 26 ft | 2 kts | 164° |
| 2026-04-26 18:56 | 44.41367 | 8.84756 | 26 ft | 2 kts | 151° |
| 2026-04-26 18:56 | 44.41379 | 8.84744 | 26 ft | 2 kts | 138° |
| 2026-04-26 18:56 | 44.41389 | 8.84729 | 26 ft | 2 kts | 125° |
| 2026-04-26 18:56 | 44.41396 | 8.84711 | 25 ft | 2 kts | 112° |
| 2026-04-26 18:57 | 44.41400 | 8.84697 | 25 ft | 0 kts | 102° |
| 2026-04-26 18:57 | 44.41400 | 8.84694 | 25 ft | 0 kts | 102° |
| 2026-04-26 18:59 | 44.41400 | 8.84695 | 25 ft | 1 kts | 102° |
| 2026-04-26 19:00 | 44.41396 | 8.84725 | 26 ft | 4 kts | 102° |
| 2026-04-26 19:00 | 44.41388 | 8.84779 | 26 ft | 6 kts | 103° |
| 2026-04-26 19:00 | 44.41374 | 8.84851 | 26 ft | 8 kts | 105° |
| 2026-04-26 19:00 | 44.41355 | 8.84948 | 26 ft | 11 kts | 105° |
| 2026-04-26 19:01 | 44.41331 | 8.85067 | 26 ft | 14 kts | 106° |
| 2026-04-26 19:01 | 44.41303 | 8.85209 | 26 ft | 16 kts | 114° |
| 2026-04-26 19:01 | 44.41253 | 8.85273 | 26 ft | 8 kts | 163° |
| 2026-04-26 19:01 | 44.41188 | 8.85268 | 26 ft | 10 kts | 191° |
| 2026-04-26 19:02 | 44.41115 | 8.85247 | 26 ft | 10 kts | 193° |
| 2026-04-26 19:02 | 44.41046 | 8.85203 | 26 ft | 11 kts | 205° |
| 2026-04-26 19:02 | 44.41012 | 8.85134 | 26 ft | 8 kts | 271° |
| 2026-04-26 19:02 | 44.41013 | 8.85127 | 26 ft | 0 kts | 283° |
| 2026-04-26 19:03 | 44.41081 | 8.84767 | 25 ft | 77 kts | 285° |
| 2026-04-26 19:03 | 44.41288 | 8.83708 | 29 ft | 143 kts | 284° |
| 2026-04-26 19:03 | 44.41574 | 8.82297 | 486 ft | 160 kts | 285° |
| 2026-04-26 19:03 | 44.41710 | 8.80758 | 1186 ft | 165 kts | 259° |
| 2026-04-26 19:04 | 44.41042 | 8.79371 | 1412 ft | 188 kts | 211° |
| 2026-04-26 19:04 | 44.39733 | 8.79077 | 1798 ft | 207 kts | 166° |
| 2026-04-26 19:04 | 44.38437 | 8.79822 | 2739 ft | 200 kts | 152° |
| 2026-04-26 19:04 | 44.37226 | 8.80706 | 3569 ft | 200 kts | 155° |
| 2026-04-26 19:05 | 44.34459 | 8.81293 | 4974 ft | 213 kts | 177° |
| 2026-04-26 19:05 | 44.32949 | 8.81337 | 5788 ft | 214 kts | 179° |
| 2026-04-26 19:05 | 44.31502 | 8.81330 | 6630 ft | 214 kts | 179° |
| 2026-04-26 19:06 | 44.29971 | 8.80962 | 6988 ft | 240 kts | 205° |
| 2026-04-26 19:06 | 44.28632 | 8.79406 | 7312 ft | 270 kts | 236° |
| 2026-04-26 19:06 | 44.27947 | 8.76902 | 7897 ft | 289 kts | 266° |
| 2026-04-26 19:06 | 44.28217 | 8.74147 | 8922 ft | 289 kts | 292° |
| 2026-04-26 19:07 | 44.29184 | 8.71771 | 9871 ft | 291 kts | 309° |
| 2026-04-26 19:07 | 44.30402 | 8.69459 | 10648 ft | 304 kts | 306° |
| 2026-04-26 19:07 | 44.31643 | 8.66882 | 10946 ft | 337 kts | 305° |
| 2026-04-26 19:07 | 44.32970 | 8.64037 | 11287 ft | 368 kts | 304° |
| 2026-04-26 19:08 | 44.34381 | 8.60957 | 12142 ft | 385 kts | 304° |
| 2026-04-26 19:08 | 44.35815 | 8.57801 | 13411 ft | 389 kts | 303° |
| 2026-04-26 19:08 | 44.37256 | 8.54617 | 14639 ft | 394 kts | 303° |
| 2026-04-26 19:08 | 44.38733 | 8.51442 | 15812 ft | 400 kts | 307° |
| 2026-04-26 19:09 | 44.40565 | 8.48534 | 16954 ft | 406 kts | 317° |
| 2026-04-26 19:09 | 44.42714 | 8.45974 | 18105 ft | 412 kts | 320° |
| 2026-04-26 19:09 | 44.44884 | 8.43364 | 19255 ft | 419 kts | 319° |
| 2026-04-26 19:09 | 44.47119 | 8.40708 | 20445 ft | 425 kts | 319° |
| 2026-04-26 19:10 | 44.49370 | 8.38018 | 21578 ft | 431 kts | 319° |
| 2026-04-26 19:10 | 44.51656 | 8.35294 | 22679 ft | 437 kts | 319° |
| 2026-04-26 19:10 | 44.53972 | 8.32530 | 23701 ft | 443 kts | 318° |
| 2026-04-26 19:10 | 44.56328 | 8.29718 | 24677 ft | 449 kts | 318° |
| 2026-04-26 19:11 | 44.58710 | 8.26873 | 25613 ft | 454 kts | 318° |
| 2026-04-26 19:11 | 44.61107 | 8.24006 | 26447 ft | 461 kts | 318° |
| 2026-04-26 19:11 | 44.63556 | 8.21075 | 27303 ft | 466 kts | 318° |
| 2026-04-26 19:11 | 44.66017 | 8.18125 | 28233 ft | 471 kts | 318° |
| 2026-04-26 19:12 | 44.68513 | 8.15132 | 29121 ft | 476 kts | 317° |
| 2026-04-26 19:12 | 44.71028 | 8.12113 | 30130 ft | 476 kts | 318° |
| 2026-04-26 19:12 | 44.73523 | 8.09124 | 31183 ft | 474 kts | 317° |
| 2026-04-26 19:12 | 44.76022 | 8.06121 | 32075 ft | 473 kts | 317° |
| 2026-04-26 19:13 | 44.78521 | 8.03117 | 33018 ft | 471 kts | 317° |
| 2026-04-26 19:13 | 44.80965 | 8.00174 | 33906 ft | 469 kts | 317° |
| 2026-04-26 19:13 | 44.83440 | 7.97191 | 34788 ft | 466 kts | 318° |
| 2026-04-26 19:13 | 44.86008 | 7.94452 | 35452 ft | 466 kts | 326° |
| 2026-04-26 19:14 | 44.88855 | 7.92333 | 36160 ft | 465 kts | 335° |
| 2026-04-26 19:14 | 44.91882 | 7.90822 | 36882 ft | 463 kts | 340° |
| 2026-04-26 19:14 | 44.94930 | 7.89302 | 37639 ft | 462 kts | 338° |
| 2026-04-26 19:14 | 44.95892 | 7.88780 | 37862 ft | 462 kts | 337° |
| 2026-04-26 19:15 | 45.00829 | 7.85930 | 38078 ft | 458 kts | 335° |
| 2026-04-26 19:15 | 45.06650 | 7.82352 | 38108 ft | 457 kts | 334° |
| 2026-04-26 19:16 | 45.12446 | 7.78672 | 38113 ft | 457 kts | 334° |
| 2026-04-26 19:16 | 45.18224 | 7.74952 | 38113 ft | 455 kts | 334° |
| 2026-04-26 19:17 | 45.23983 | 7.71218 | 38119 ft | 456 kts | 334° |
| 2026-04-26 19:17 | 45.29716 | 7.67486 | 38129 ft | 457 kts | 334° |
| 2026-04-26 19:18 | 45.35493 | 7.63714 | 38149 ft | 455 kts | 334° |
| 2026-04-26 19:18 | 45.41219 | 7.59966 | 38174 ft | 456 kts | 334° |
| 2026-04-26 19:19 | 45.46986 | 7.56183 | 38187 ft | 455 kts | 334° |
| 2026-04-26 19:19 | 45.52681 | 7.52439 | 38213 ft | 453 kts | 334° |
| 2026-04-26 19:20 | 45.58392 | 7.48675 | 38229 ft | 454 kts | 334° |
| 2026-04-26 19:20 | 45.64105 | 7.44901 | 38206 ft | 454 kts | 334° |
| 2026-04-26 19:21 | 45.69833 | 7.41109 | 38204 ft | 454 kts | 334° |
| 2026-04-26 19:21 | 45.75522 | 7.37334 | 38213 ft | 453 kts | 334° |
| 2026-04-26 19:22 | 45.81048 | 7.33056 | 38252 ft | 450 kts | 324° |
| 2026-04-26 19:22 | 45.86162 | 7.27927 | 38262 ft | 451 kts | 324° |
| 2026-04-26 19:23 | 45.91300 | 7.22731 | 38260 ft | 451 kts | 324° |
| 2026-04-26 19:23 | 45.96394 | 7.17548 | 38272 ft | 449 kts | 324° |
| 2026-04-26 19:24 | 46.01485 | 7.12343 | 38287 ft | 451 kts | 324° |
| 2026-04-26 19:24 | 46.09106 | 7.04525 | 38270 ft | 451 kts | 324° |
| 2026-04-26 19:25 | 46.12502 | 7.01032 | 38259 ft | 450 kts | 324° |
| 2026-04-26 19:25 | 46.19270 | 6.94053 | 38280 ft | 450 kts | 324° |
| 2026-04-26 19:26 | 46.24323 | 6.88829 | 38265 ft | 448 kts | 324° |
| 2026-04-26 19:26 | 46.29388 | 6.83581 | 38267 ft | 447 kts | 324° |
| 2026-04-26 19:27 | 46.34422 | 6.78352 | 38246 ft | 449 kts | 324° |
| 2026-04-26 19:27 | 46.39491 | 6.73075 | 38241 ft | 448 kts | 324° |
| 2026-04-26 19:28 | 46.44413 | 6.67700 | 38226 ft | 448 kts | 318° |
| 2026-04-26 19:28 | 46.48797 | 6.61239 | 38196 ft | 449 kts | 315° |
| 2026-04-26 19:29 | 46.53115 | 6.54754 | 38187 ft | 447 kts | 315° |
| 2026-04-26 19:29 | 46.57393 | 6.48286 | 38176 ft | 447 kts | 315° |
| 2026-04-26 19:30 | 46.61685 | 6.41769 | 38178 ft | 446 kts | 315° |
| 2026-04-26 19:30 | 46.64537 | 6.37428 | 38185 ft | 446 kts | 315° |
| 2026-04-26 19:31 | 46.70226 | 6.28743 | 38195 ft | 446 kts | 314° |
| 2026-04-26 19:31 | 46.74469 | 6.22246 | 38206 ft | 446 kts | 314° |
| 2026-04-26 19:32 | 46.78741 | 6.15689 | 38196 ft | 446 kts | 314° |
| 2026-04-26 19:32 | 46.82989 | 6.09153 | 38190 ft | 445 kts | 314° |
| 2026-04-26 19:33 | 46.87217 | 6.02630 | 38178 ft | 444 kts | 315° |
| 2026-04-26 19:33 | 46.91472 | 5.96051 | 38172 ft | 444 kts | 314° |
| 2026-04-26 19:34 | 46.95950 | 5.89938 | 38175 ft | 442 kts | 326° |
| 2026-04-26 19:34 | 47.01260 | 5.85576 | 38165 ft | 441 kts | 332° |
| 2026-04-26 19:35 | 47.06681 | 5.81357 | 38164 ft | 441 kts | 332° |
| 2026-04-26 19:35 | 47.12083 | 5.77175 | 38177 ft | 441 kts | 332° |
| 2026-04-26 19:36 | 47.15702 | 5.74375 | 38169 ft | 442 kts | 332° |
| 2026-04-26 19:36 | 47.22935 | 5.68772 | 38167 ft | 442 kts | 332° |
| 2026-04-26 19:37 | 47.28341 | 5.64577 | 38177 ft | 442 kts | 332° |
| 2026-04-26 19:37 | 47.33753 | 5.60367 | 38175 ft | 441 kts | 332° |
| 2026-04-26 19:38 | 47.39182 | 5.56134 | 38174 ft | 441 kts | 332° |
| 2026-04-26 19:38 | 47.44606 | 5.51896 | 38175 ft | 441 kts | 332° |
| 2026-04-26 19:39 | 47.49956 | 5.47582 | 38171 ft | 441 kts | 327° |
| 2026-04-26 19:39 | 47.54422 | 5.41476 | 38183 ft | 443 kts | 310° |
| 2026-04-26 19:40 | 47.58168 | 5.34182 | 38178 ft | 445 kts | 308° |
| 2026-04-26 19:40 | 47.61851 | 5.26871 | 38197 ft | 444 kts | 307° |
| 2026-04-26 19:41 | 47.65510 | 5.19527 | 38194 ft | 443 kts | 307° |
| 2026-04-26 19:41 | 47.67934 | 5.14636 | 38194 ft | 444 kts | 307° |
| 2026-04-26 19:42 | 47.72796 | 5.04785 | 38198 ft | 444 kts | 307° |
| 2026-04-26 19:42 | 47.76411 | 4.97432 | 38206 ft | 443 kts | 307° |
| 2026-04-26 19:43 | 47.80043 | 4.90023 | 38202 ft | 445 kts | 307° |
| 2026-04-26 19:43 | 47.83663 | 4.82619 | 38202 ft | 445 kts | 307° |
| 2026-04-26 19:44 | 47.87269 | 4.75223 | 38199 ft | 444 kts | 307° |
| 2026-04-26 19:44 | 47.90878 | 4.67798 | 38202 ft | 444 kts | 307° |
| 2026-04-26 19:45 | 47.94486 | 4.60356 | 38201 ft | 443 kts | 307° |
| 2026-04-26 19:45 | 47.98085 | 4.52914 | 38202 ft | 443 kts | 307° |
| 2026-04-26 19:46 | 48.01653 | 4.45516 | 38200 ft | 443 kts | 307° |
| 2026-04-26 19:46 | 48.05254 | 4.38027 | 38199 ft | 444 kts | 307° |
| 2026-04-26 19:47 | 48.07647 | 4.33040 | 38199 ft | 444 kts | 306° |
| 2026-04-26 19:47 | 48.12416 | 4.23074 | 38203 ft | 444 kts | 306° |
| 2026-04-26 19:48 | 48.16011 | 4.15535 | 38203 ft | 445 kts | 306° |
| 2026-04-26 19:48 | 48.19581 | 4.08031 | 38200 ft | 444 kts | 306° |
| 2026-04-26 19:49 | 48.23146 | 4.00516 | 38204 ft | 443 kts | 306° |
| 2026-04-26 19:49 | 48.27013 | 3.93404 | 38216 ft | 443 kts | 314° |
| 2026-04-26 19:50 | 48.31270 | 3.86684 | 38208 ft | 444 kts | 314° |
| 2026-04-26 19:50 | 48.35484 | 3.80018 | 38204 ft | 443 kts | 314° |
| 2026-04-26 19:51 | 48.39742 | 3.73275 | 38205 ft | 444 kts | 313° |
| 2026-04-26 19:51 | 48.43966 | 3.66568 | 38203 ft | 443 kts | 314° |
| 2026-04-26 19:52 | 48.48187 | 3.59852 | 38204 ft | 444 kts | 313° |
| 2026-04-26 19:52 | 48.52423 | 3.53096 | 38208 ft | 445 kts | 313° |
| 2026-04-26 19:53 | 48.56663 | 3.46315 | 38205 ft | 444 kts | 313° |
| 2026-04-26 19:53 | 48.60874 | 3.39563 | 38207 ft | 445 kts | 313° |
| 2026-04-26 19:54 | 48.65093 | 3.32780 | 38211 ft | 445 kts | 313° |
| 2026-04-26 19:54 | 48.69338 | 3.25937 | 38210 ft | 446 kts | 313° |
| 2026-04-26 19:55 | 48.73556 | 3.19121 | 38213 ft | 446 kts | 313° |
| 2026-04-26 19:55 | 48.77775 | 3.12285 | 38215 ft | 446 kts | 313° |
| 2026-04-26 19:56 | 48.82017 | 3.05391 | 38212 ft | 445 kts | 313° |
| 2026-04-26 19:56 | 48.86780 | 2.99488 | 38227 ft | 447 kts | 328° |
| 2026-04-26 19:57 | 48.92143 | 2.94750 | 38214 ft | 449 kts | 328° |
| 2026-04-26 19:57 | 48.97533 | 2.90003 | 38210 ft | 449 kts | 329° |
| 2026-04-26 19:58 | 49.02937 | 2.85249 | 38218 ft | 448 kts | 329° |
| 2026-04-26 19:58 | 49.08309 | 2.80519 | 38221 ft | 449 kts | 329° |
| 2026-04-26 19:59 | 49.13686 | 2.75775 | 38228 ft | 447 kts | 329° |
| 2026-04-26 19:59 | 49.19054 | 2.71028 | 38227 ft | 449 kts | 329° |
| 2026-04-26 20:00 | 49.24466 | 2.66231 | 38224 ft | 449 kts | 328° |
| 2026-04-26 20:00 | 49.29857 | 2.61440 | 38228 ft | 449 kts | 329° |
| 2026-04-26 20:01 | 49.35215 | 2.56666 | 38229 ft | 449 kts | 328° |
| 2026-04-26 20:01 | 49.40609 | 2.51848 | 38230 ft | 449 kts | 328° |
| 2026-04-26 20:02 | 49.45981 | 2.47039 | 38224 ft | 449 kts | 328° |
| 2026-04-26 20:02 | 49.49536 | 2.43716 | 38222 ft | 448 kts | 323° |
| 2026-04-26 20:03 | 49.53286 | 2.38312 | 38234 ft | 446 kts | 310° |
| 2026-04-26 20:03 | 49.55286 | 2.34629 | 38228 ft | 447 kts | 309° |
| 2026-04-26 20:03 | 49.59224 | 2.27300 | 38231 ft | 446 kts | 308° |
| 2026-04-26 20:04 | 49.63126 | 2.19937 | 38233 ft | 446 kts | 308° |
| 2026-04-26 20:04 | 49.65077 | 2.16235 | 38426 ft | 447 kts | 308° |
| 2026-04-26 20:04 | 49.67027 | 2.12524 | 37943 ft | 448 kts | 308° |
| 2026-04-26 20:05 | 49.68972 | 2.08815 | 38413 ft | 440 kts | 308° |
| 2026-04-26 20:05 | 49.70894 | 2.05140 | 38196 ft | 446 kts | 308° |
| 2026-04-26 20:05 | 49.74759 | 1.97735 | 38230 ft | 445 kts | 308° |
| 2026-04-26 20:06 | 49.78642 | 1.90273 | 38229 ft | 445 kts | 308° |
| 2026-04-26 20:06 | 49.82490 | 1.82857 | 38173 ft | 442 kts | 308° |
| 2026-04-26 20:07 | 49.86377 | 1.75342 | 38255 ft | 451 kts | 308° |
| 2026-04-26 20:07 | 49.90264 | 1.67809 | 38245 ft | 447 kts | 308° |
| 2026-04-26 20:08 | 49.94113 | 1.60325 | 38247 ft | 446 kts | 308° |
| 2026-04-26 20:08 | 49.98007 | 1.52824 | 38237 ft | 448 kts | 311° |
| 2026-04-26 20:09 | 50.02570 | 1.46310 | 38236 ft | 449 kts | 317° |
| 2026-04-26 20:09 | 50.07262 | 1.39895 | 38250 ft | 449 kts | 317° |
| 2026-04-26 20:10 | 50.11926 | 1.33523 | 38257 ft | 450 kts | 317° |
| 2026-04-26 20:10 | 50.16618 | 1.27104 | 38256 ft | 450 kts | 317° |
| 2026-04-26 20:11 | 50.21330 | 1.20642 | 38252 ft | 450 kts | 317° |
| 2026-04-26 20:12 | 50.28309 | 1.11041 | 38269 ft | 449 kts | 317° |
| 2026-04-26 20:12 | 50.32974 | 1.04603 | 37823 ft | 451 kts | 316° |
| 2026-04-26 20:12 | 50.35305 | 1.01380 | 37210 ft | 447 kts | 316° |
| 2026-04-26 20:13 | 50.37624 | 0.98169 | 36654 ft | 440 kts | 316° |
| 2026-04-26 20:13 | 50.39875 | 0.95048 | 36206 ft | 437 kts | 316° |
| 2026-04-26 20:13 | 50.42146 | 0.91893 | 35644 ft | 439 kts | 316° |
| 2026-04-26 20:13 | 50.44424 | 0.88729 | 35055 ft | 438 kts | 316° |
| 2026-04-26 20:14 | 50.46742 | 0.85637 | 34437 ft | 438 kts | 317° |
| 2026-04-26 20:14 | 50.49067 | 0.82562 | 33801 ft | 439 kts | 317° |
| 2026-04-26 20:14 | 50.51389 | 0.79483 | 33211 ft | 441 kts | 317° |
| 2026-04-26 20:14 | 50.53714 | 0.76394 | 32630 ft | 443 kts | 318° |
| 2026-04-26 20:15 | 50.56092 | 0.73228 | 32047 ft | 448 kts | 318° |
| 2026-04-26 20:15 | 50.57663 | 0.71135 | 31603 ft | 452 kts | 318° |
| 2026-04-26 20:15 | 50.60863 | 0.66863 | 30736 ft | 457 kts | 318° |
| 2026-04-26 20:15 | 50.63293 | 0.63616 | 30090 ft | 458 kts | 318° |
| 2026-04-26 20:16 | 50.65707 | 0.60387 | 29462 ft | 459 kts | 318° |
| 2026-04-26 20:16 | 50.68118 | 0.57153 | 28859 ft | 458 kts | 318° |
| 2026-04-26 20:16 | 50.69708 | 0.55025 | 28495 ft | 451 kts | 318° |
| 2026-04-26 20:16 | 50.72095 | 0.51811 | 27860 ft | 451 kts | 318° |
| 2026-04-26 20:17 | 50.75218 | 0.47615 | 27064 ft | 444 kts | 318° |
| 2026-04-26 20:17 | 50.77541 | 0.44480 | 26488 ft | 439 kts | 317° |
| 2026-04-26 20:17 | 50.79870 | 0.41331 | 25916 ft | 437 kts | 318° |
| 2026-04-26 20:17 | 50.81393 | 0.39280 | 25494 ft | 434 kts | 318° |
| 2026-04-26 20:18 | 50.84403 | 0.35200 | 24686 ft | 429 kts | 318° |
| 2026-04-26 20:18 | 50.86676 | 0.32122 | 24097 ft | 427 kts | 317° |
| 2026-04-26 20:18 | 50.88147 | 0.30125 | 23725 ft | 423 kts | 317° |
| 2026-04-26 20:18 | 50.91125 | 0.26080 | 22978 ft | 418 kts | 317° |
| 2026-04-26 20:19 | 50.92574 | 0.24108 | 22608 ft | 417 kts | 317° |
| 2026-04-26 20:19 | 50.94739 | 0.21160 | 22056 ft | 411 kts | 317° |
| 2026-04-26 20:19 | 50.96905 | 0.18204 | 21495 ft | 409 kts | 317° |
| 2026-04-26 20:19 | 50.99748 | 0.14323 | 20750 ft | 403 kts | 317° |
| 2026-04-26 20:20 | 51.01880 | 0.11496 | 20207 ft | 401 kts | 321° |
| 2026-04-26 20:20 | 51.03392 | 0.09818 | 19981 ft | 398 kts | 324° |
| 2026-04-26 20:20 | 51.06422 | 0.06453 | 19896 ft | 397 kts | 323° |
| 2026-04-26 20:20 | 51.07921 | 0.04798 | 19836 ft | 399 kts | 323° |
| 2026-04-26 20:21 | 51.10199 | 0.02264 | 19765 ft | 401 kts | 323° |
| 2026-04-26 20:21 | 51.12490 | -0.00276 | 19674 ft | 401 kts | 323° |
| 2026-04-26 20:21 | 51.15533 | -0.03654 | 19550 ft | 399 kts | 323° |
| 2026-04-26 20:21 | 51.17790 | -0.06164 | 19448 ft | 398 kts | 323° |
| 2026-04-26 20:22 | 51.19307 | -0.07851 | 19377 ft | 397 kts | 323° |
| 2026-04-26 20:22 | 51.22315 | -0.11201 | 19253 ft | 396 kts | 323° |
| 2026-04-26 20:22 | 51.23815 | -0.12874 | 19187 ft | 396 kts | 323° |
| 2026-04-26 20:22 | 51.26081 | -0.15403 | 19089 ft | 396 kts | 323° |
| 2026-04-26 20:23 | 51.28307 | -0.17889 | 18982 ft | 396 kts | 323° |
| 2026-04-26 20:23 | 51.30586 | -0.20439 | 18869 ft | 396 kts | 323° |
| 2026-04-26 20:23 | 51.32822 | -0.22944 | 18753 ft | 394 kts | 323° |
| 2026-04-26 20:23 | 51.35812 | -0.26298 | 18620 ft | 393 kts | 323° |
| 2026-04-26 20:24 | 51.38096 | -0.28662 | 18514 ft | 394 kts | 330° |
| 2026-04-26 20:24 | 51.39756 | -0.29877 | 18436 ft | 395 kts | 337° |
| 2026-04-26 20:24 | 51.42399 | -0.31041 | 18320 ft | 397 kts | 348° |
| 2026-04-26 20:24 | 51.46085 | -0.31376 | 17737 ft | 401 kts | 1° |
| 2026-04-26 20:25 | 51.47926 | -0.30999 | 17351 ft | 400 kts | 9° |
| 2026-04-26 20:25 | 51.49699 | -0.30189 | 16989 ft | 401 kts | 19° |
| 2026-04-26 20:25 | 51.53033 | -0.27607 | 16307 ft | 400 kts | 24° |
| 2026-04-26 20:25 | 51.56313 | -0.25079 | 15639 ft | 395 kts | 24° |
| 2026-04-26 20:26 | 51.57970 | -0.23799 | 15292 ft | 393 kts | 24° |
| 2026-04-26 20:26 | 51.60422 | -0.21911 | 14795 ft | 391 kts | 24° |
| 2026-04-26 20:26 | 51.62828 | -0.20058 | 14350 ft | 386 kts | 23° |
| 2026-04-26 20:26 | 51.65183 | -0.18239 | 14141 ft | 360 kts | 23° |
| 2026-04-26 20:27 | 51.67324 | -0.16583 | 14123 ft | 327 kts | 23° |
| 2026-04-26 20:27 | 51.69996 | -0.14523 | 14239 ft | 321 kts | 22° |
| 2026-04-26 20:27 | 51.71346 | -0.13483 | 14191 ft | 316 kts | 23° |
| 2026-04-26 20:27 | 51.73297 | -0.11975 | 14180 ft | 313 kts | 22° |
| 2026-04-26 20:28 | 51.75935 | -0.09990 | 14139 ft | 315 kts | 20° |
| 2026-04-26 20:28 | 51.77285 | -0.09056 | 13864 ft | 324 kts | 20° |
| 2026-04-26 20:28 | 51.79354 | -0.07615 | 13352 ft | 326 kts | 21° |
| 2026-04-26 20:28 | 51.81428 | -0.06164 | 13029 ft | 320 kts | 21° |
| 2026-04-26 20:29 | 51.83439 | -0.04753 | 12646 ft | 319 kts | 21° |
| 2026-04-26 20:29 | 51.85467 | -0.03333 | 12052 ft | 315 kts | 21° |
| 2026-04-26 20:29 | 51.87431 | -0.01950 | 11599 ft | 306 kts | 21° |
| 2026-04-26 20:29 | 51.89977 | -0.00161 | 11108 ft | 293 kts | 21° |
| 2026-04-26 20:30 | 51.91202 | 0.00702 | 11035 ft | 289 kts | 21° |
| 2026-04-26 20:30 | 51.93068 | 0.02015 | 10853 ft | 293 kts | 21° |
| 2026-04-26 20:30 | 51.94894 | 0.03304 | 10824 ft | 278 kts | 21° |
| 2026-04-26 20:30 | 51.96606 | 0.04514 | 10745 ft | 265 kts | 21° |
| 2026-04-26 20:31 | 51.98290 | 0.05683 | 10676 ft | 260 kts | 17° |
| 2026-04-26 20:31 | 52.00018 | 0.06164 | 10507 ft | 257 kts | 1° |
| 2026-04-26 20:31 | 52.01833 | 0.06288 | 10026 ft | 264 kts | 1° |
| 2026-04-26 20:31 | 52.04292 | 0.06461 | 9639 ft | 262 kts | 1° |
| 2026-04-26 20:32 | 52.05479 | 0.06539 | 9634 ft | 254 kts | 1° |
| 2026-04-26 20:32 | 52.07240 | 0.06648 | 9480 ft | 249 kts | 0° |
| 2026-04-26 20:32 | 52.08943 | 0.06747 | 9221 ft | 248 kts | 359° |
| 2026-04-26 20:32 | 52.11099 | 0.05770 | 8820 ft | 246 kts | 322° |
| 2026-04-26 20:33 | 52.11900 | 0.04446 | 8512 ft | 244 kts | 302° |
| 2026-04-26 20:33 | 52.12436 | 0.01887 | 7988 ft | 245 kts | 272° |
| 2026-04-26 20:33 | 52.12077 | -0.00791 | 7491 ft | 246 kts | 241° |
| 2026-04-26 20:33 | 52.10921 | -0.02741 | 7184 ft | 242 kts | 207° |
| 2026-04-26 20:34 | 52.09320 | -0.03434 | 7169 ft | 243 kts | 186° |
| 2026-04-26 20:34 | 52.07595 | -0.03744 | 7054 ft | 253 kts | 188° |
| 2026-04-26 20:34 | 52.05836 | -0.04157 | 6829 ft | 254 kts | 189° |
| 2026-04-26 20:34 | 52.04127 | -0.04578 | 6536 ft | 248 kts | 189° |
| 2026-04-26 20:35 | 52.01833 | -0.04851 | 5970 ft | 248 kts | 167° |
| 2026-04-26 20:35 | 52.00790 | -0.04223 | 5748 ft | 243 kts | 147° |
| 2026-04-26 20:35 | 51.99419 | -0.02660 | 5631 ft | 243 kts | 143° |
| 2026-04-26 20:35 | 51.98014 | -0.01040 | 5378 ft | 245 kts | 143° |
| 2026-04-26 20:36 | 51.96647 | 0.00556 | 5161 ft | 242 kts | 143° |
| 2026-04-26 20:36 | 51.95293 | 0.02156 | 4875 ft | 241 kts | 143° |
| 2026-04-26 20:36 | 51.93838 | 0.03442 | 4789 ft | 238 kts | 166° |
| 2026-04-26 20:36 | 51.92186 | 0.03463 | 4602 ft | 246 kts | 190° |
| 2026-04-26 20:37 | 51.90493 | 0.02911 | 4101 ft | 252 kts | 191° |
| 2026-04-26 20:37 | 51.88777 | 0.02332 | 3570 ft | 251 kts | 192° |
| 2026-04-26 20:37 | 51.87092 | 0.01740 | 3081 ft | 249 kts | 192° |
| 2026-04-26 20:37 | 51.85452 | 0.01146 | 2998 ft | 235 kts | 193° |
| 2026-04-26 20:38 | 51.83357 | 0.00131 | 2908 ft | 236 kts | 196° |
| 2026-04-26 20:38 | 51.82319 | -0.00352 | 2849 ft | 233 kts | 195° |
| 2026-04-26 20:38 | 51.80741 | -0.01053 | 2732 ft | 232 kts | 194° |
| 2026-04-26 20:38 | 51.79171 | -0.01603 | 2661 ft | 230 kts | 180° |
| 2026-04-26 20:39 | 51.77637 | -0.00991 | 2616 ft | 227 kts | 146° |
| 2026-04-26 20:39 | 51.76614 | 0.00808 | 2567 ft | 216 kts | 112° |
| 2026-04-26 20:39 | 51.76441 | 0.03076 | 2567 ft | 203 kts | 77° |
| 2026-04-26 20:39 | 51.77026 | 0.05924 | 2500 ft | 199 kts | 63° |
| 2026-04-26 20:40 | 51.77569 | 0.07096 | 2495 ft | 191 kts | 44° |
| 2026-04-26 20:40 | 51.78518 | 0.08510 | 2488 ft | 181 kts | 44° |
| 2026-04-26 20:40 | 51.79403 | 0.09869 | 2492 ft | 169 kts | 44° |
| 2026-04-26 20:40 | 51.80236 | 0.11127 | 2433 ft | 164 kts | 43° |
| 2026-04-26 20:41 | 51.81072 | 0.12382 | 2228 ft | 158 kts | 44° |
| 2026-04-26 20:41 | 51.81827 | 0.13511 | 2033 ft | 138 kts | 44° |
| 2026-04-26 20:41 | 51.82510 | 0.14530 | 1792 ft | 130 kts | 44° |
| 2026-04-26 20:41 | 51.83160 | 0.15501 | 1597 ft | 127 kts | 44° |
| 2026-04-26 20:42 | 51.83809 | 0.16471 | 1436 ft | 130 kts | 44° |
| 2026-04-26 20:42 | 51.84485 | 0.17481 | 1256 ft | 132 kts | 44° |
| 2026-04-26 20:42 | 51.85161 | 0.18485 | 1075 ft | 131 kts | 43° |
| 2026-04-26 20:42 | 51.85829 | 0.19436 | 916 ft | 128 kts | 43° |
| 2026-04-26 20:43 | 51.86483 | 0.20414 | 712 ft | 128 kts | 47° |
| 2026-04-26 20:43 | 51.87125 | 0.21401 | 521 ft | 127 kts | 45° |
| 2026-04-26 20:43 | 51.87767 | 0.22373 | 385 ft | 131 kts | 45° |
| 2026-04-26 20:43 | 51.88412 | 0.23347 | 346 ft | 102 kts | 42° |
| 2026-04-26 20:44 | 51.88753 | 0.23861 | 344 ft | 50 kts | 42° |
| 2026-04-26 20:44 | 51.88945 | 0.24158 | 343 ft | 34 kts | 45° |
| 2026-04-26 20:44 | 51.89082 | 0.24460 | 345 ft | 32 kts | 65° |
| 2026-04-26 20:44 | 51.89128 | 0.24642 | 346 ft | 12 kts | 69° |
| 2026-04-26 20:45 | 51.89145 | 0.24715 | 347 ft | 0 kts | 69° |
| 2026-04-26 20:46 | 51.89146 | 0.24719 | 347 ft | 2 kts | 69° |
| 2026-04-26 20:46 | 51.89163 | 0.24794 | 347 ft | 10 kts | 71° |
| 2026-04-26 20:46 | 51.89156 | 0.24901 | 347 ft | 8 kts | 82° |
| 2026-04-26 20:46 | 51.89184 | 0.24987 | 348 ft | 8 kts | 49° |
| 2026-04-26 20:47 | 51.89222 | 0.25062 | 349 ft | 8 kts | 56° |
| 2026-04-26 20:47 | 51.89236 | 0.25122 | 349 ft | 8 kts | 86° |
| 2026-04-26 20:47 | 51.89197 | 0.25233 | 349 ft | 9 kts | 140° |
| 2026-04-26 20:47 | 51.89138 | 0.25308 | 348 ft | 11 kts | 141° |
| 2026-04-26 20:48 | 51.89085 | 0.25399 | 347 ft | 11 kts | 133° |
| 2026-04-26 20:48 | 51.89025 | 0.25504 | 347 ft | 13 kts | 133° |
| 2026-04-26 20:48 | 51.88996 | 0.25555 | 347 ft | 0 kts | 134° |
| 2026-04-26 20:48 | 51.88994 | 0.25557 | 347 ft | 0 kts | 146° |
| 2026-04-26 20:49 | 51.88992 | 0.25558 | 347 ft | 0 kts | 156° |
| 2026-04-26 20:49 | 51.88990 | 0.25559 | 346 ft | 0 kts | 166° |
| 2026-04-26 20:49 | 51.88983 | 0.25558 | 346 ft | 0 kts | 192° |
| 2026-04-26 20:49 | 51.88973 | 0.25533 | 346 ft | 5 kts | 261° |
| 2026-04-26 20:50 | 51.88972 | 0.25501 | 346 ft | 0 kts | 267° |
| 2026-04-26 20:50 | 51.88968 | 0.25482 | 346 ft | 0 kts | 240° |
| 2026-04-26 20:50 | 51.88966 | 0.25473 | 346 ft | 0 kts | 242° |
| 2026-04-26 20:51 | 51.88965 | 0.25470 | 346 ft | 0 kts | 239° |